Hauptseite
METAR-TAF:

METAR-TAF

Flughäfen :

Évreux, Frankreich

Militärflugplatz Évreux-Fauville

Breite: 49-01N, Länge: 001-13E, Höhe: 141 m

Beobachtung

Neuester Wetterbericht von vor 34 Minuten, um 09:30 UTC
Wind 12 kt aus Ost
Temperatur -1°C
Luftfeuchtigkeit 54%
Luftdruck 1022 hPa
Sichtweite 10 km oder mehr
keine Wolken unter 1500 m und keine Kumulonimbus oder Gewitterwolken

METAR: LFOE 250930Z AUTO 08012KT CAVOK M01/M09 Q1022

Zeit: 11:04 (10:04 UTC)

Prognose

Neuester Wetterbericht von vor 2 Stunden und 4 Minuten, um 08:00 UTC
Gültige Prognose vom 25 um 09 UTC bis 26 um 09 UTC
Wind 10 kt aus Ost/Nordost, Böen bis zu 20 kt
Sichtweite 10 km oder mehr
keine Wolken unter 1500 m und keine Kumulonimbus oder Gewitterwolken

TAF: LFOE 250800Z 2509/2609 07010G20KT CAVOK

Wetterbeobachtungen und Prognosen von mehr als 4000 Flughäfen (METAR und TAF Bericht).

Die verfügbaren Stationen werden durch gelbe und rote Markierungen auf der Karte dargestellt.

Führen Sie die Maus auf sie, um den Namen der Station zu sehen.

Darauf klicken, um die Beobachtung von Wetterbeobachtungen und Prognosen zu sehen.

Um die Karte zu ändern : klicken Sie auf den grünen Tasten mit einem schwarzen Kreuz Zum Vergrößern, auf den grünen Button mit einem Gedankenstrich zu verkleinern, oder auf die grünen Pfeile für benachbarte Karten.


METAR-TAF: